Time;durP1;ratioP1;P1;durP2;ratioP2;P2;SDS_P1;SDS_P2;PMS_P1;PMS_P2;Temp;Humidity;BMP_temperature;BMP_pressure;BME280_temperature;BME280_humidity;BME280_pressure;Samples;Min_cycle;Max_cycle;Signal;HPM_P1;HPM_P2
2021/10/24 00:01:47;;;;;;;;;;;4.50;99.90;;;2.37;100.00;101992.69;4930279;28;20000;-83
2021/10/24 00:04:13;;;;;;;;;;;4.50;99.90;;;2.40;100.00;102003.13;4909962;28;19918;-82
2021/10/24 00:06:39;;;;;;;;;;;4.50;99.90;;;2.42;100.00;102001.41;4926131;28;20289;-82
2021/10/24 00:09:12;;;;;;;;;;;4.50;99.90;;;2.45;100.00;102004.00;4914656;28;19922;-82
2021/10/24 00:11:38;;;;;;;;;;;4.50;99.90;;;2.52;100.00;102008.38;4917495;28;19948;-84
2021/10/24 00:14:06;;;;;;;;;;;4.50;99.90;;;2.56;100.00;102010.16;4904845;28;19992;-83
2021/10/24 00:16:31;;;;;;;;;;;4.60;99.90;;;2.70;100.00;102027.59;4911273;28;19902;-83
2021/10/24 00:19:06;;;;;;;;;;;4.70;99.90;;;2.77;100.00;102032.84;4921476;28;19910;-82
2021/10/24 00:21:32;;;;;;;;;;;4.70;99.90;;;2.83;100.00;101979.97;4940002;28;19937;-83
2021/10/24 00:23:58;;;;;;;;;;;4.80;99.90;;;2.89;100.00;102029.44;4938626;28;20003;-83
2021/10/24 00:26:33;;;;;;;;;;;4.90;99.90;;;2.96;100.00;102039.03;4936614;28;19956;-84
2021/10/24 00:28:59;;;;;;;;;;;4.90;99.90;;;2.98;100.00;102039.94;4877755;28;19982;-84
2021/10/24 00:31:25;;;;;;;;;;;5.00;99.90;;;2.99;100.00;102044.25;4928961;28;19913;-84
2021/10/24 00:33:50;;;;;;;;;;;5.00;99.90;;;3.02;100.00;102041.69;4912526;28;20348;-85
2021/10/24 00:36:25;;;;;;;;;;;5.00;99.90;;;3.04;100.00;102031.25;4920295;28;19917;-84
2021/10/24 00:38:51;;;;;;;;;;;5.10;99.90;;;3.11;100.00;102046.06;4919948;28;20735;-84
2021/10/24 00:41:17;;;;;;;;;;;5.10;99.90;;;3.13;100.00;102046.06;4908934;28;19915;-84
2021/10/24 00:43:43;;;;;;;;;;;5.10;99.90;;;3.15;100.00;102046.94;4936823;28;20002;-84
2021/10/24 00:46:18;;;;;;;;;;;5.10;99.90;;;3.13;100.00;102039.09;4892567;28;20411;-84
2021/10/24 00:48:44;;;;;;;;;;;5.10;99.90;;;3.16;100.00;102054.75;4924014;28;20000;-84
2021/10/24 00:51:10;;;;;;;;;;;5.20;99.90;;;3.19;100.00;102053.91;4950439;28;19936;-84
2021/10/24 00:53:44;;;;;;;;;;;5.20;99.90;;;3.19;100.00;102054.75;4904226;28;19988;-84
2021/10/24 00:56:10;;;;;;;;;;;5.20;99.90;;;3.27;100.00;102060.03;4924557;28;19922;-84
2021/10/24 00:58:37;;;;;;;;;;;5.30;99.90;;;3.28;100.00;102056.53;4919112;28;19988;-84
2021/10/24 01:01:04;;;;;;;;;;;5.20;99.90;;;3.24;100.00;102055.69;4906481;28;19975;-84
2021/10/24 01:03:39;;;;;;;;;;;5.20;99.90;;;3.25;100.00;102056.53;4889881;28;19924;-83
2021/10/24 01:06:04;;;;;;;;;;;5.30;99.90;;;3.22;100.00;102057.41;4937331;28;20087;-85
2021/10/24 01:08:31;;;;;;;;;;;5.20;99.90;;;3.22;100.00;102022.69;4903203;28;19910;-85
2021/10/24 01:11:07;;;;;;;;;;;5.30;99.90;;;3.20;100.00;102034.84;4947605;28;19920;-84
2021/10/24 01:13:34;;;;;;;;;;;5.20;99.90;;;3.20;100.00;102035.69;4898889;28;19925;-85
2021/10/24 01:16:16;;;;;;;;;;;5.20;99.90;;;3.28;100.00;102038.31;4907361;28;19917;-85
2021/10/24 01:18:51;;;;;;;;;;;5.30;99.90;;;3.29;100.00;102032.25;4919946;28;19913;-84
2021/10/24 01:21:18;;;;;;;;;;;5.30;99.90;;;3.23;100.00;102025.28;4932011;28;20004;-83
2021/10/24 01:23:44;;;;;;;;;;;5.30;99.90;;;3.22;100.00;102026.16;4908276;28;20009;-85
2021/10/24 01:26:20;;;;;;;;;;;5.30;99.90;;;3.20;100.00;102032.22;4931610;28;19975;-85
2021/10/24 01:28:45;;;;;;;;;;;5.20;99.90;;;3.26;100.00;102047.84;4928472;28;19917;-84
2021/10/24 01:31:11;;;;;;;;;;;5.20;99.90;;;3.25;100.00;102051.34;4924255;28;20408;-84
2021/10/24 01:33:45;;;;;;;;;;;5.20;99.90;;;3.29;100.00;102053.09;4906079;28;19922;-86
2021/10/24 01:36:12;;;;;;;;;;;4.20;99.90;;;3.30;100.00;102047.00;4923745;28;19921;-86
2021/10/24 01:38:51;;;;;;;;;;;5.20;99.90;;;3.34;100.00;102066.13;4958237;28;19937;-84
2021/10/24 01:41:20;;;;;;;;;;;5.30;99.90;;;3.33;100.00;102069.59;4946618;28;19928;-84
2021/10/24 01:43:56;;;;;;;;;;;5.30;99.90;;;3.36;100.00;102067.00;4934730;28;20024;-84
2021/10/24 01:46:21;;;;;;;;;;;5.30;99.90;;;3.40;100.00;102074.84;4908645;28;22575;-84
2021/10/24 01:48:48;;;;;;;;;;;5.40;99.90;;;3.38;100.00;102081.75;4887326;28;20309;-84
2021/10/24 01:51:26;;;;;;;;;;;5.30;99.90;;;3.40;100.00;102069.63;4899505;28;19953;-84
2021/10/24 01:53:52;;;;;;;;;;;5.30;99.90;;;3.44;100.00;102156.44;4886390;28;19906;-85
2021/10/24 01:56:27;;;;;;;;;;;5.40;99.90;;;3.42;100.00;102109.56;4930898;28;20350;-85
2021/10/24 01:58:53;;;;;;;;;;;5.40;99.90;;;3.43;100.00;102108.69;4934009;28;19913;-85
2021/10/24 02:01:18;;;;;;;;;;;5.40;99.90;;;3.43;100.00;102110.44;4904726;28;19913;-85
2021/10/24 02:03:47;;;;;;;;;;;5.30;99.90;;;3.48;100.00;102114.81;4923863;28;19922;-84
2021/10/24 02:06:15;;;;;;;;;;;5.50;99.90;;;3.55;100.00;102120.91;4926888;28;19928;-84
2021/10/24 02:08:40;;;;;;;;;;;2.80;99.90;;;3.58;100.00;102130.47;4934866;28;22369;-87
2021/10/24 02:11:06;;;;;;;;;;;5.50;99.90;;;3.59;100.00;102137.44;4906464;28;19924;-84
2021/10/24 02:13:32;;;;;;;;;;;5.60;99.90;;;3.60;100.00;102139.16;4925974;28;19918;-85
2021/10/24 02:15:58;;;;;;;;;;;8.00;99.90;;;3.60;100.00;102128.75;4936040;28;20293;-84
2021/10/24 02:18:24;;;;;;;;;;;5.60;99.90;;;3.62;100.00;102127.88;4923175;28;19917;-85
2021/10/24 02:20:58;;;;;;;;;;;5.60;99.90;;;3.61;100.00;102105.31;4914736;28;20254;-84
2021/10/24 02:23:24;;;;;;;;;;;5.60;99.90;;;3.66;100.00;102134.00;4942512;28;19913;-85
2021/10/24 02:25:50;;;;;;;;;;;5.60;99.90;;;3.69;100.00;102136.59;4924314;28;19962;-84
2021/10/24 02:28:16;;;;;;;;;;;5.70;99.90;;;3.72;100.00;102154.00;4921908;28;19968;-85
2021/10/24 02:30:49;;;;;;;;;;;5.70;99.90;;;3.73;100.00;102151.38;4928452;28;19924;-85
2021/10/24 02:33:15;;;;;;;;;;;5.60;99.90;;;3.74;100.00;102147.94;4926076;28;19996;-85
2021/10/24 02:35:40;;;;;;;;;;;5.70;99.90;;;3.73;100.00;102160.94;4903869;28;19909;-86
2021/10/24 02:38:06;;;;;;;;;;;5.80;99.90;;;3.75;100.00;102164.41;4934101;28;20578;-84
2021/10/24 02:40:43;;;;;;;;;;;5.60;99.90;;;3.75;100.00;102159.22;4917678;28;19921;-84
2021/10/24 02:43:10;;;;;;;;;;;5.80;99.90;;;3.78;100.00;102178.34;4928871;28;20299;-84
2021/10/24 02:45:36;;;;;;;;;;;5.80;99.90;;;3.80;100.00;102188.75;4919742;28;20416;-85
2021/10/24 02:48:10;;;;;;;;;;;5.80;99.90;;;3.80;100.00;102187.03;4909729;28;20007;-85
2021/10/24 02:50:35;;;;;;;;;;;5.70;99.90;;;3.81;100.00;102183.56;4905651;28;20344;-85
2021/10/24 02:53:01;;;;;;;;;;;5.70;99.90;;;3.81;100.00;102196.59;4918811;28;19922;-84
2021/10/24 02:55:27;;;;;;;;;;;5.80;99.90;;;3.84;100.00;102203.53;4925331;28;19960;-85
2021/10/24 02:58:00;;;;;;;;;;;5.80;99.90;;;3.86;100.00;102207.88;4922678;28;20460;-85
2021/10/24 03:00:26;;;;;;;;;;;5.80;99.90;;;3.90;100.00;102214.84;4919219;28;19957;-85
2021/10/24 03:02:52;;;;;;;;;;;5.80;99.90;;;3.89;100.00;102213.13;4939990;28;19941;-84
2021/10/24 03:05:18;;;;;;;;;;;5.90;99.90;;;3.92;100.00;102206.19;4933557;28;19972;-84
2021/10/24 03:07:43;;;;;;;;;;;10.20;99.90;;;3.95;100.00;102214.00;4923993;28;20263;-85
2021/10/24 03:10:18;;;;;;;;;;;5.80;99.90;;;3.95;100.00;102198.38;4885791;28;19979;-85
2021/10/24 03:12:43;;;;;;;;;;;5.90;99.90;;;4.00;100.00;102227.97;4940922;28;19962;-84
2021/10/24 03:15:10;;;;;;;;;;;5.80;99.90;;;4.01;100.00;102232.28;4944922;28;20343;-84
2021/10/24 03:17:36;;;;;;;;;;;6.00;99.90;;;4.04;100.00;102246.22;4931899;28;19964;-85
2021/10/24 03:20:09;;;;;;;;;;;5.90;99.90;;;4.09;100.00;102251.44;4915542;28;19975;-84
2021/10/24 03:22:35;;;;;;;;;;;6.00;99.90;;;4.05;100.00;102242.75;4913347;28;20361;-84
2021/10/24 03:25:01;;;;;;;;;;;5.90;99.90;;;4.04;100.00;102250.53;4941025;28;19996;-86
2021/10/24 03:27:27;;;;;;;;;;;6.00;99.90;;;4.05;100.00;102249.69;4890958;28;19926;-85
2021/10/24 03:30:03;;;;;;;;;;;6.00;99.90;;;4.05;100.00;102268.81;4905072;28;20028;-85
2021/10/24 03:32:29;;;;;;;;;;;6.00;99.90;;;4.05;100.00;102275.75;4933846;28;19922;-85
2021/10/24 03:34:55;;;;;;;;;;;6.00;99.90;;;4.05;100.00;102270.53;4935545;28;20412;-85
2021/10/24 03:37:32;;;;;;;;;;;6.00;99.90;;;4.06;100.00;102286.19;4932766;28;19936;-84
2021/10/24 03:39:58;;;;;;;;;;;6.00;99.90;;;4.06;100.00;102307.06;4918960;28;20410;-85
2021/10/24 03:42:23;;;;;;;;;;;6.00;99.90;;;4.10;100.00;102308.81;4899645;28;19921;-85
2021/10/24 03:44:56;;;;;;;;;;;6.00;99.90;;;4.10;100.00;102311.44;4934161;28;20312;-85
2021/10/24 03:47:22;;;;;;;;;;;6.00;99.90;;;4.11;100.00;102317.50;4922305;28;20024;-85
2021/10/24 03:49:48;;;;;;;;;;;6.10;99.90;;;4.17;100.00;102314.94;4934815;28;19917;-84
2021/10/24 03:52:14;;;;;;;;;;;6.10;99.90;;;4.18;100.00;102311.44;4917686;28;20062;-85
2021/10/24 03:54:40;;;;;;;;;;;6.20;99.90;;;4.20;100.00;102321.91;4918193;28;20397;-84
2021/10/24 03:57:15;;;;;;;;;;;6.10;99.90;;;4.26;100.00;102329.75;4897796;28;19995;-85
2021/10/24 03:59:41;;;;;;;;;;;6.20;99.90;;;4.27;100.00;102321.91;4926435;28;19949;-85
2021/10/24 04:02:06;;;;;;;;;;;6.30;99.90;;;4.25;100.00;102409.69;4914862;28;20697;-85
2021/10/24 04:04:44;;;;;;;;;;;6.10;99.90;;;4.27;100.00;102302.81;4927970;28;19944;-85
2021/10/24 04:07:11;;;;;;;;;;;6.20;99.90;;;4.22;100.00;102281.94;4888657;28;20362;-85
2021/10/24 04:09:48;;;;;;;;;;;6.20;99.90;;;4.24;100.00;102282.81;4913078;28;19926;-85
2021/10/24 04:12:14;;;;;;;;;;;6.20;99.90;;;4.26;100.00;102267.19;4917206;28;20437;-85
2021/10/24 04:14:41;;;;;;;;;;;6.10;99.90;;;4.28;100.00;102261.09;4924452;28;19922;-84
2021/10/24 04:17:13;;;;;;;;;;;6.20;99.90;;;4.25;100.00;102257.59;4909790;28;20404;-85
2021/10/24 04:19:39;;;;;;;;;;;5.90;99.90;;;4.28;100.00;102263.69;4928407;28;19972;-85
2021/10/24 04:22:05;;;;;;;;;;;6.30;99.90;;;4.34;100.00;102280.22;4924486;28;20534;-85
2021/10/24 04:24:31;;;;;;;;;;;6.30;99.90;;;4.36;100.00;102286.31;4935401;28;19961;-85
2021/10/24 04:27:05;;;;;;;;;;;6.20;99.90;;;4.34;100.00;102275.88;4946674;28;19929;-85
2021/10/24 04:29:31;;;;;;;;;;;6.30;99.90;;;4.33;100.00;102284.59;4940012;28;19909;-85
2021/10/24 04:31:57;;;;;;;;;;;6.20;99.90;;;4.34;100.00;102281.09;4932058;28;20018;-85
2021/10/24 04:34:23;;;;;;;;;;;6.20;99.90;;;4.35;100.00;102288.06;4891637;28;19972;-85
2021/10/24 04:36:59;;;;;;;;;;;6.20;99.90;;;4.34;100.00;102306.31;4908722;28;20297;-85
2021/10/24 04:39:24;;;;;;;;;;;6.30;99.90;;;4.37;100.00;102301.13;4921235;28;19976;-85
2021/10/24 04:41:50;;;;;;;;;;;6.20;99.90;;;4.38;100.00;102300.25;4892846;28;19918;-86
2021/10/24 04:44:27;;;;;;;;;;;6.30;99.90;;;4.40;100.00;102319.38;4941394;28;19925;-85
2021/10/24 04:46:53;;;;;;;;;;;6.30;99.90;;;4.44;100.00;102318.53;4901719;28;20915;-85
2021/10/24 04:49:19;;;;;;;;;;;6.20;99.90;;;4.43;100.00;102308.97;4976280;28;19909;-85
2021/10/24 04:51:53;;;;;;;;;;;6.40;99.90;;;4.47;100.00;102322.03;4958638;28;19944;-85
2021/10/24 04:54:20;;;;;;;;;;;6.40;99.90;;;4.84;100.00;102360.44;4924013;28;20109;-85
2021/10/24 04:56:45;;;;;;;;;;;6.70;99.90;;;4.71;100.00;102339.50;4935912;28;20278;-85
2021/10/24 04:59:11;;;;;;;;;;;6.70;99.90;;;4.73;100.00;102347.38;4913159;28;19921;-85
2021/10/24 05:01:50;;;;;;;;;;;6.60;99.90;;;4.70;100.00;102327.31;4916657;28;19917;-85
2021/10/24 05:04:16;;;;;;;;;;;6.60;99.90;;;4.65;100.00;102344.72;4902243;28;19982;-85
2021/10/24 05:06:51;;;;;;;;;;;6.60;99.90;;;4.62;100.00;102370.81;4935222;28;19923;-85
2021/10/24 05:09:17;;;;;;;;;;;6.60;99.90;;;4.63;100.00;102414.28;4945285;28;20016;-85
2021/10/24 05:11:43;;;;;;;;;;;3.10;99.90;;;4.59;100.00;102430.78;4943678;28;19921;-85
2021/10/24 05:14:12;;;;;;;;;;;6.60;99.90;;;4.61;100.00;102438.63;4930601;28;19977;-85
2021/10/24 05:16:43;;;;;;;;;;;6.60;99.90;;;4.63;100.00;102476.03;4933577;28;20361;-85
2021/10/24 05:19:09;;;;;;;;;;;7.50;99.90;;;4.67;100.00;102572.59;4922249;28;19914;-85
2021/10/24 05:21:35;;;;;;;;;;;6.70;99.90;;;4.85;100.00;102519.66;4929178;28;19914;-85
2021/10/24 05:24:10;;;;;;;;;;;6.80;99.90;;;4.81;100.00;102511.78;4920829;28;20411;-85
2021/10/24 05:26:36;;;;;;;;;;;6.70;99.90;;;4.93;100.00;102554.50;4913945;28;19927;-86
2021/10/24 05:29:02;;;;;;;;;;;6.80;99.90;;;5.24;100.00;102572.94;4902399;28;19927;-85
2021/10/24 05:31:33;;;;;;;;;;;7.10;99.90;;;5.17;100.00;102591.22;4907875;28;20355;-85
2021/10/24 05:34:02;;;;;;;;;;;7.10;99.90;;;5.12;100.00;102615.56;4902669;28;19921;-84
2021/10/24 05:36:28;;;;;;;;;;;7.10;99.90;;;5.13;100.00;102606.84;4897056;28;19918;-85
2021/10/24 05:38:54;;;;;;;;;;;7.10;99.90;;;5.10;100.00;102651.22;4905729;28;20292;-84
2021/10/24 05:41:20;;;;;;;;;;;7.00;99.90;;;5.34;100.00;102650.50;4909886;28;19960;-85
2021/10/24 05:43:46;;;;;;;;;;;7.20;99.90;;;5.32;100.00;102696.63;4934611;28;19914;-84
2021/10/24 05:46:21;;;;;;;;;;;7.30;99.90;;;5.20;100.00;102662.59;4965701;28;20392;-85
2021/10/24 05:48:46;;;;;;;;;;;7.20;99.90;;;5.21;100.00;102720.94;4961286;28;19923;-85
2021/10/24 05:51:22;;;;;;;;;;;7.20;99.90;;;5.18;100.00;102697.41;4914469;28;19914;-85
2021/10/24 05:53:48;;;;;;;;;;;7.20;99.90;;;5.20;100.00;102724.41;4896000;28;20377;-85
2021/10/24 05:56:14;;;;;;;;;;;7.10;99.90;;;5.13;100.00;102733.94;4904601;28;19945;-85
2021/10/24 05:58:42;;;;;;;;;;;7.10;99.90;;;5.07;100.00;102728.66;4960579;28;19914;-86
2021/10/24 06:01:14;;;;;;;;;;;7.10;99.90;;;5.13;100.00;102750.47;4933841;28;20054;-86
2021/10/24 06:03:40;;;;;;;;;;;7.20;99.90;;;5.25;100.00;102794.13;4920547;28;20114;-85
2021/10/24 06:06:06;;;;;;;;;;;7.10;99.90;;;5.29;100.00;102792.38;4889741;28;19973;-85
2021/10/24 06:08:32;;;;;;;;;;;7.30;99.90;;;5.41;100.00;102812.53;4892241;28;20266;-85
2021/10/24 06:13:51;;;;;;;;;;;5.90;99.90;;;5.31;100.00;102838.59;4929200;28;19959;-85
2021/10/24 06:16:24;;;;;;;;;;;7.30;99.90;;;5.59;100.00;102861.44;4935732;28;20298;-85
2021/10/24 06:18:50;;;;;;;;;;;7.40;99.90;;;5.72;100.00;102868.50;4917843;28;20417;-85
2021/10/24 06:21:16;;;;;;;;;;;7.60;99.90;;;5.59;100.00;102864.91;4940452;28;19993;-85
2021/10/24 06:23:42;;;;;;;;;;;7.60;99.90;;;5.51;100.00;102880.56;4898600;28;20356;-85
2021/10/24 06:26:08;;;;;;;;;;;7.40;99.90;;;5.52;100.00;102879.69;4951321;28;19953;-85
2021/10/24 06:28:43;;;;;;;;;;;7.50;99.90;;;5.57;100.00;102918.03;4895723;28;19917;-85
2021/10/24 06:31:09;;;;;;;;;;;7.50;99.90;;;5.57;100.00;102928.50;4937269;28;19909;-85
2021/10/24 06:33:35;;;;;;;;;;;7.40;99.90;;;5.64;100.00;102943.41;4939793;28;19922;-85
2021/10/24 06:36:09;;;;;;;;;;;7.60;99.90;;;5.68;100.00;102953.91;4920621;28;19933;-86
2021/10/24 06:38:35;;;;;;;;;;;7.70;99.90;;;5.78;100.00;102980.97;4935808;28;19917;-85
2021/10/24 06:41:01;;;;;;;;;;;7.60;99.90;;;5.85;100.00;102985.44;4916759;28;19926;-85
2021/10/24 06:43:26;;;;;;;;;;;7.80;99.90;;;5.95;100.00;102989.03;4896594;28;19910;-85
2021/10/24 06:45:52;;;;;;;;;;;7.80;99.90;;;6.07;100.00;102996.97;4906413;28;19914;-86
2021/10/24 06:48:25;;;;;;;;;;;8.10;99.90;;;6.14;100.00;103005.75;4932940;28;20312;-85
2021/10/24 06:50:51;;;;;;;;;;;8.10;99.90;;;6.20;100.00;103024.13;4925204;28;19963;-85
2021/10/24 06:53:17;;;;;;;;;;;8.20;99.90;;;6.14;100.00;103024.94;4926381;28;19906;-85
2021/10/24 06:55:43;;;;;;;;;;;8.20;99.90;;;6.15;100.00;103039.78;4925429;28;19917;-85
2021/10/24 06:58:16;;;;;;;;;;;8.10;99.90;;;6.18;100.00;103072.94;4912594;28;20035;-86
2021/10/24 07:00:43;;;;;;;;;;;8.10;99.90;;;6.31;100.00;103061.72;4920428;28;19914;-85
2021/10/24 07:03:08;;;;;;;;;;;8.10;99.90;;;6.43;100.00;103081.84;4878804;28;20428;-85
2021/10/24 07:05:36;;;;;;;;;;;8.40;99.90;;;6.50;100.00;103095.88;4910090;28;19929;-85
2021/10/24 07:08:11;;;;;;;;;;;8.40;99.90;;;6.44;100.00;103122.00;4938116;28;19925;-85
2021/10/24 07:10:37;;;;;;;;;;;8.40;99.90;;;6.44;100.00;103116.78;4942609;28;19924;-86
2021/10/24 07:13:03;;;;;;;;;;;8.50;99.90;;;6.49;100.00;103113.31;4902517;28;20246;-86
2021/10/24 07:15:40;;;;;;;;;;;8.40;99.90;;;6.53;100.00;103156.13;4919937;28;19996;-86
2021/10/24 07:18:06;;;;;;;;;;;8.50;99.90;;;6.67;100.00;103174.56;4925499;28;19972;-85
2021/10/24 07:20:31;;;;;;;;;;;8.60;99.90;;;6.71;100.00;103153.63;4932544;28;19918;-84
2021/10/24 07:23:04;;;;;;;;;;;8.70;99.90;;;6.78;100.00;103199.09;4947268;28;19926;-85
2021/10/24 07:25:30;;;;;;;;;;;8.80;99.90;;;6.74;100.00;103164.16;4912437;28;19961;-86
2021/10/24 07:27:56;;;;;;;;;;;8.80;99.90;;;6.77;100.00;103189.47;4910634;28;20011;-85
2021/10/24 07:30:22;;;;;;;;;;;8.80;99.90;;;6.78;100.00;103226.16;4926552;28;19988;-85
2021/10/24 07:32:57;;;;;;;;;;;8.80;99.90;;;6.86;100.00;103220.97;4885992;28;20314;-85
2021/10/24 07:35:23;;;;;;;;;;;8.80;99.90;;;6.92;100.00;103233.28;4907157;28;21087;-86
2021/10/24 07:37:50;;;;;;;;;;;8.90;99.90;;;7.02;100.00;103253.44;4889445;28;19917;-86
2021/10/24 07:40:18;;;;;;;;;;;8.90;99.90;;;7.11;100.00;103257.88;4913440;28;20004;-85
2021/10/24 07:42:53;;;;;;;;;;;9.00;99.90;;;7.26;100.00;103236.16;4893512;28;20258;-87
2021/10/24 07:45:19;;;;;;;;;;;8.90;99.90;;;7.26;100.00;103265.00;4968211;28;20281;-86
2021/10/24 07:47:49;;;;;;;;;;;9.30;99.90;;;7.38;100.00;103268.56;4955640;28;19913;-85
2021/10/24 07:50:18;;;;;;;;;;;9.40;99.90;;;7.53;100.00;103238.94;4952355;28;19917;-86
2021/10/24 07:52:45;;;;;;;;;;;9.50;99.90;;;7.66;100.00;103231.16;4920046;28;19961;-85
2021/10/24 07:55:11;;;;;;;;;;;9.60;99.90;;;7.73;100.00;103141.16;4927673;28;20377;-85
2021/10/24 07:57:46;;;;;;;;;;;9.80;99.90;;;7.60;100.00;103103.50;4950821;28;19936;-85
2021/10/24 08:00:12;;;;;;;;;;;9.80;99.90;;;7.60;100.00;103087.78;4930348;28;19920;-86
2021/10/24 08:02:37;;;;;;;;;;;9.60;99.90;;;7.43;100.00;103053.66;4918195;28;19909;-86
2021/10/24 08:05:04;;;;;;;;;;;9.60;99.90;;;7.36;100.00;103055.38;4900432;28;19929;-85
2021/10/24 08:07:40;;;;;;;;;;;9.50;99.90;;;7.39;100.00;103055.38;4872350;28;20449;-85
2021/10/24 08:10:07;;;;;;;;;;;9.50;99.90;;;7.39;100.00;103059.75;4902808;28;20012;-85
2021/10/24 08:12:41;;;;;;;;;;;9.50;99.90;;;7.47;100.00;103070.25;4924963;28;19988;-87
2021/10/24 08:15:08;;;;;;;;;;;9.50;99.90;;;7.44;100.00;103055.41;4906669;28;19918;-85
2021/10/24 08:17:35;;;;;;;;;;;9.70;99.90;;;7.66;100.00;103063.34;4887085;28;19922;-85
2021/10/24 08:20:10;;;;;;;;;;;9.70;99.90;;;7.65;100.00;103053.75;4961767;28;20290;-85
2021/10/24 08:22:36;;;;;;;;;;;8.60;99.90;;;8.17;100.00;103101.06;4913862;28;20009;-85
2021/10/24 08:25:02;;;;;;;;;;;9.90;99.90;;;9.21;100.00;103163.22;4910186;28;19917;-86
2021/10/24 08:27:37;;;;;;;;;;;10.90;99.90;;;10.62;96.33;103214.38;4906555;28;19922;-85
2021/10/24 08:30:06;;;;;;;;;;;12.10;99.90;;;11.70;87.93;103251.19;4918278;28;20121;-87
2021/10/24 08:32:44;;;;;;;;;;;13.50;99.90;;;13.37;80.92;103281.47;4944472;28;20340;-86
2021/10/24 08:35:12;;;;;;;;;;;14.60;99.90;;;14.09;74.70;103220.03;4897463;28;20016;-86
2021/10/24 08:37:48;;;;;;;;;;;15.40;99.90;;;14.03;74.63;103206.03;4919585;28;19967;-86
2021/10/24 08:40:14;;;;;;;;;;;15.00;99.90;;;14.49;70.06;103192.63;4920358;28;20111;-86
2021/10/24 08:42:51;;;;;;;;;;;16.20;99.90;;;14.62;70.34;103187.03;4909759;28;20001;-86
2021/10/24 08:45:18;;;;;;;;;;;16.40;99.90;;;14.90;69.08;103192.53;4931696;28;19994;-86
2021/10/24 08:47:44;;;;;;;;;;;16.70;99.90;;;15.05;68.14;103189.47;4918112;28;20428;-86
2021/10/24 08:50:20;;;;;;;;;;;16.80;99.90;;;15.47;67.61;103199.84;4906693;28;20389;-86
2021/10/24 08:52:56;;;;;;;;;;;17.00;99.90;;;15.26;67.70;103148.22;4923978;28;19925;-86
2021/10/24 08:55:22;;;;;;;;;;;17.30;99.90;;;16.00;65.69;103188.59;4915772;28;20000;-86
2021/10/24 08:57:49;;;;;;;;;;;18.40;99.90;;;15.79;64.83;103163.56;4923196;28;20377;-85
2021/10/24 09:00:26;;;;;;;;;;;;;;;;;;;;;
2021/10/24 09:03:11;;;;;;;;;;;17.80;99.90;;;16.69;62.91;103087.13;4896351;28;20585;-87
2021/10/24 09:05:52;;;;;;;;;;;18.30;99.90;;;17.30;57.80;103106.25;4887171;28;20000;-87
2021/10/24 09:08:46;;;;;;;;;;;18.50;99.90;;;16.37;59.78;103060.72;4925992;28;20379;-86
2021/10/24 09:17:52;;;;;;;;;;;16.40;99.90;;;16.84;60.58;103075.97;4924094;28;20292;-86
2021/10/24 09:20:32;;;;;;;;;;;18.00;99.90;;;16.96;57.72;103048.91;4916291;28;19914;-87
2021/10/24 09:23:46;;;;;;;;;;;18.00;99.90;;;17.14;56.93;103034.03;4905378;28;19913;-86
2021/10/24 09:26:36;;;;;;;;;;;18.00;99.90;;;16.84;57.17;102990.81;4902891;28;19925;-85
2021/10/24 09:29:32;;;;;;;;;;;17.70;99.90;;;16.56;57.81;102949.22;4902728;28;19925;-86
2021/10/24 09:32:25;;;;;;;;;;;17.70;99.90;;;17.31;56.29;102988.16;4926632;28;19929;-86
2021/10/24 09:35:47;;;;;;;;;;;18.00;99.90;;;16.91;56.06;102925.81;4924098;28;20451;-86
2021/10/24 09:41:49;;;;;;;;;;;17.90;99.90;;;15.98;61.13;102919.41;4918363;28;19909;-85
2021/10/24 09:44:20;;;;;;;;;;;18.00;99.90;;;15.66;59.64;102867.34;4884301;28;19918;-85
2021/10/24 09:47:23;;;;;;;;;;;17.80;99.90;;;14.47;62.25;102770.31;4868650;28;19922;-86
2021/10/24 09:50:13;;;;;;;;;;;15.30;99.90;;;14.21;65.18;102772.88;4914919;28;19920;-85
2021/10/24 09:52:43;;;;;;;;;;;16.50;99.90;;;13.91;65.04;102741.94;4912839;28;19999;-88
2021/10/24 09:55:31;;;;;;;;;;;17.30;99.90;;;13.71;67.30;102744.25;4917265;28;19960;-85
2021/10/24 09:58:26;;;;;;;;;;;15.90;99.90;;;13.03;69.58;102700.19;4908669;28;20012;-86
2021/10/24 10:01:52;;;;;;;;;;;15.30;99.90;;;12.69;72.46;102680.72;4918289;28;20086;-86
2021/10/24 10:04:52;;;;;;;;;;;13.30;99.90;;;12.86;71.68;102724.41;4934022;28;19925;-86
2021/10/24 10:08:17;;;;;;;;;;;;;;;;;;;;;
2021/10/24 10:11:34;;;;;;;;;;;14.70;99.90;;;12.19;73.19;102655.50;4956286;28;20317;-86
2021/10/24 10:15:03;;;;;;;;;;;14.30;99.90;;;11.47;72.36;102599.84;4901496;28;19998;-85
2021/10/24 10:17:33;;;;;;;;;;;13.50;99.90;;;11.18;75.46;102587.22;4900954;28;20758;-86
2021/10/24 10:20:44;;;;;;;;;;;13.20;99.90;;;11.13;73.47;102581.16;4883194;28;19922;-86
2021/10/24 10:27:02;;;;;;;;;;;12.60;99.90;;;10.42;76.79;102530.63;4871670;28;20402;-86
2021/10/24 10:30:14;;;;;;;;;;;12.30;99.90;;;10.50;77.07;102533.13;4852016;28;19973;-86
2021/10/24 10:33:34;;;;;;;;;;;11.80;99.90;;;10.83;74.88;102560.63;4899634;28;19914;-86
2021/10/24 10:36:16;;;;;;;;;;;12.10;99.90;;;10.75;72.73;102546.72;4877898;28;20383;-83
2021/10/24 10:39:33;;;;;;;;;;;12.30;99.90;;;10.48;74.02;102511.22;4909303;28;19986;-85
2021/10/24 10:42:45;;;;;;;;;;;12.20;99.90;;;10.81;73.15;102551.00;4897899;28;19960;-84
2021/10/24 10:49:12;;;;;;;;;;;12.00;99.90;;;10.43;76.38;102497.25;4881654;28;19922;-85
2021/10/24 10:59:11;;;;;;;5.53;1.40;;;11.70;99.90;;;10.12;78.98;102478.44;5044890;27;20986;-79
2021/10/24 11:01:50;;;;;;;7.85;1.80;;;11.30;99.90;;;9.84;79.03;102469.22;5024199;28;20119;-79
2021/10/24 11:05:22;;;;;;;6.18;1.02;;;11.10;99.90;;;9.75;80.35;102460.63;4982637;28;20039;-78
2021/10/24 11:07:55;;;;;;;3.28;1.20;;;11.10;99.90;;;9.73;80.33;102455.38;4997743;28;20995;-79
2021/10/24 11:10:46;;;;;;;8.18;1.30;;;11.10;99.90;;;9.82;81.85;102459.63;5005077;28;20094;-79
2021/10/24 11:13:31;;;;;;;4.88;1.20;;;11.20;99.90;;;9.92;80.35;102468.25;5032859;28;20121;-79
2021/10/24 11:16:32;;;;;;;5.95;1.58;;;11.30;99.90;;;9.90;81.09;102456.88;5054405;28;20085;-79
2021/10/24 11:19:06;;;;;;;4.80;0.98;;;11.30;99.90;;;9.98;79.90;102452.38;5036364;28;20114;-79
2021/10/24 11:21:36;;;;;;;4.05;1.00;;;11.40;99.90;;;10.08;79.46;102459.19;4986903;28;20029;-79
2021/10/24 11:24:05;;;;;;;7.03;1.15;;;11.40;99.90;;;10.06;79.16;102446.09;5020470;28;20096;-79
2021/10/24 11:26:31;;;;;;;5.60;1.13;;;11.40;99.90;;;10.18;78.47;102452.03;4999097;28;20048;-79
2021/10/24 11:28:57;;;;;;;10.73;0.95;;;11.50;99.90;;;10.17;77.75;102445.91;5049799;28;20071;-79
2021/10/24 11:31:23;;;;;;;5.18;1.30;;;11.40;99.90;;;10.13;77.03;102435.44;5021779;28;20068;-79
2021/10/24 11:33:53;;;;;;;;;;;11.50;99.90;;;10.15;77.97;102428.38;5037101;28;20059;-79
2021/10/24 11:36:25;;;;;;;2.65;0.70;;;11.50;99.90;;;10.18;77.82;102430.97;4987004;28;19983;-79
2021/10/24 11:39:04;;;;;;;1.83;1.05;;;11.50;99.90;;;10.13;80.46;102419.63;5045076;28;20378;-79
2021/10/24 11:41:30;;;;;;;4.72;1.13;;;11.50;99.90;;;10.04;79.92;102400.50;5028517;28;20041;-79
2021/10/24 11:44:09;;;;;;;5.88;1.20;;;11.50;99.90;;;10.05;80.08;102401.34;5037174;28;20489;-79
2021/10/24 11:46:37;;;;;;;3.50;0.80;;;11.50;99.90;;;10.10;80.36;102396.00;5021520;28;20545;-79
2021/10/24 11:49:04;;;;;;;4.57;1.10;;;11.50;99.90;;;10.10;77.29;102398.63;5018458;28;20036;-79
2021/10/24 11:51:35;;;;;;;5.80;1.05;;;11.50;99.90;;;10.13;77.49;102394.19;5027614;28;20067;-79
2021/10/24 11:54:02;;;;;;;9.73;1.40;;;11.50;99.90;;;10.18;76.85;102391.47;5036838;28;20025;-79
2021/10/24 11:59:12;;;;;;;3.20;1.00;;;11.60;99.90;;;10.26;77.80;102386.94;5022901;28;20067;-79
2021/10/24 12:01:40;;;;;;;8.00;1.30;;;11.70;99.90;;;10.30;77.47;102386.00;5026113;28;20116;-79
2021/10/24 12:04:09;;;;;;;4.82;1.10;;;11.60;99.90;;;10.24;76.86;102373.81;5030828;28;20064;-79
2021/10/24 12:07:06;;;;;;;6.70;1.20;;;11.60;99.90;;;10.24;77.10;102365.03;5009238;28;20056;-79